Time;durP1;ratioP1;P1;durP2;ratioP2;P2;SDS_P1;SDS_P2;PMS_P1;PMS_P2;Temp;Humidity;BMP_temperature;BMP_pressure;BME280_temperature;BME280_humidity;BME280_pressure;Samples;Min_cycle;Max_cycle;Signal;HPM_P1;HPM_P2
2023/09/29 00:56:33;;;;;;;6.97;5.87;;;;;;;8.14;100.00;96212.13;7423222;19;20680;-94
2023/09/29 00:59:17;;;;;;;9.73;6.37;;;;;;;8.11;100.00;96205.63;7430251;19;20368;-96
2023/09/29 01:02:06;;;;;;;10.13;5.23;;;;;;;8.09;100.00;96210.44;7428887;19;20417;-96
2023/09/29 01:04:50;;;;;;;8.90;5.70;;;;;;;8.11;100.00;96202.22;7431300;19;20389;-96
2023/09/29 01:07:34;;;;;;;8.40;6.40;;;;;;;8.07;100.00;96188.91;7430941;19;20369;-96
2023/09/29 01:10:39;;;;;;;11.13;6.57;;;;;;;7.23;100.00;96113.94;7428940;19;20481;-96
2023/09/29 01:13:26;;;;;;;7.73;5.80;;;;;;;8.01;100.00;96216.47;7434189;19;20373;-96
2023/09/29 07:05:57;;;;;;;13.70;12.03;;;;;;;8.74;100.00;96195.41;7402993;19;20436;-94
2023/09/29 07:12:17;;;;;;;15.33;14.00;;;;;;;9.79;100.00;96241.94;7419278;19;20363;-94
2023/09/29 07:15:24;;;;;;;17.93;14.60;;;;;;;10.43;100.00;96298.94;7412789;19;20392;-94
2023/09/29 07:18:18;;;;;;;16.70;14.83;;;;;;;10.74;100.00;96304.50;7421140;19;20378;-94
2023/09/29 07:21:20;;;;;;;14.73;13.43;;;;;;;10.61;100.00;96240.25;7414937;19;20418;-93
2023/09/29 07:24:34;;;;;;;15.23;13.23;;;;;;;11.18;100.00;96299.50;7413922;19;20380;-93
2023/09/29 07:27:43;;;;;;;13.63;12.33;;;;;;;12.06;100.00;96433.16;7417430;19;20385;-94
2023/09/29 07:30:24;;;;;;;13.70;12.30;;;;;;;10.78;100.00;96212.84;7418330;19;20404;-94
2023/09/29 07:33:33;;;;;;;13.53;12.30;;;;;;;11.40;100.00;96285.84;7418706;19;20381;-95
2023/09/29 07:36:31;;;;;;;15.80;14.20;;;;;;;12.52;100.00;96431.09;7418427;19;20381;-94
2023/09/29 07:39:36;;;;;;;17.33;15.60;;;;;;;12.70;100.00;96438.47;7418180;19;20401;-94
2023/09/29 07:42:51;;;;;;;15.93;14.33;;;;;;;11.95;100.00;96303.00;7418162;19;20446;-94
2023/09/29 09:00:03;;;;;;;13.67;12.47;;;;;;;14.14;100.00;96289.38;7429208;19;20426;-95
2023/09/29 09:10:04;;;;;;;16.30;12.50;;;;;;;16.03;100.00;96433.91;7429025;19;20316;-95
2023/09/29 09:13:26;;;;;;;17.00;11.47;;;;;;;16.15;100.00;96433.66;7427975;19;20356;-95
2023/09/29 09:17:36;;;;;;;11.80;10.00;;;;;;;16.29;100.00;96441.88;7423771;19;20381;-95
2023/09/29 09:24:02;;;;;;;10.70;9.70;;;;;;;16.81;100.00;96434.94;7426505;19;20336;-95
2023/09/29 09:27:14;;;;;;;13.97;10.77;;;;;;;16.01;100.00;96327.53;7433745;19;20389;-93
2023/09/29 09:29:55;;;;;;;10.57;9.57;;;;;;;16.78;100.00;96408.97;7427514;19;20383;-94
2023/09/29 09:32:42;;;;;;;9.90;9.10;;;;;;;15.91;100.00;96242.84;7427078;19;20376;-93
2023/09/29 09:35:44;;;;;;;10.33;9.37;;;;;;;16.13;100.00;96233.97;7424954;19;20392;-92
2023/09/29 09:38:32;;;;;;;13.80;9.60;;;;;;;17.64;100.00;96389.22;7425939;19;20389;-94
2023/09/29 09:41:16;;;;;;;9.90;8.93;;;;;;;17.20;100.00;96258.25;7425583;19;20417;-93
2023/09/29 09:44:11;;;;;;;9.37;8.57;;;;;;;17.89;100.00;96320.63;7425634;19;20430;-94
2023/09/29 09:47:21;;;;;;;9.27;8.30;;;;;;;19.02;100.00;96424.06;7425874;19;20396;-95
2023/09/29 09:50:11;;;;;;;8.90;8.00;;;;;;;17.45;100.00;96232.47;7425595;19;20393;-94
2023/09/29 09:53:22;;;;;;;9.40;7.50;;;;;;;18.58;100.00;96392.88;7422887;19;20405;-94
2023/09/29 09:56:31;;;;;;;8.77;7.87;;;;;;;17.76;100.00;96287.31;7422661;19;20416;-94
2023/09/29 09:59:11;;;;;;;8.67;7.83;;;;;;;17.67;100.00;96252.84;7417456;19;20381;-95
2023/09/29 10:02:22;;;;;;;7.80;7.10;;;;;;;18.97;100.00;96437.06;7428048;19;20400;-94
2023/09/29 20:15:17;;;;;;;14.33;10.70;;;;;;;17.02;100.00;96461.16;7331804;19;21466;-95
2023/09/29 20:17:58;;;;;;;15.20;9.77;;;;;;;15.83;100.00;96254.56;7427342;19;20373;-94
2023/09/29 20:20:40;;;;;;;17.40;10.90;;;;;;;16.62;100.00;96379.00;7425111;19;20420;-95
2023/09/29 20:23:25;;;;;;;17.30;11.17;;;;;;;16.03;100.00;96351.22;7433509;19;20392;-94
2023/09/29 20:26:06;;;;;;;14.73;9.90;;;;;;;15.91;100.00;96360.19;7433995;19;20446;-94
2023/09/29 21:15:37;;;;;;;24.47;13.00;;;;;;;16.08;100.00;96530.38;7403279;19;20432;-96
2023/09/29 21:55:22;;;;;;;21.57;12.80;;;;;;;14.62;100.00;96413.13;7381947;19;20440;-95
2023/09/29 22:01:44;;;;;;;27.17;13.70;;;;;;;14.93;100.00;96533.91;7428502;19;20436;-94
2023/09/29 22:04:32;;;;;;;32.33;14.00;;;;;;;13.83;100.00;96346.06;7431921;19;20396;-95
2023/09/29 22:10:46;;;;;;;29.60;14.10;;;;;;;15.00;100.00;96529.50;7435477;19;20381;-95
2023/09/29 22:13:40;;;;;;;22.60;12.33;;;;;;;14.66;100.00;96538.28;7430672;19;20400;-94
2023/09/29 22:16:34;;;;;;;22.47;13.40;;;;;;;14.48;100.00;96543.97;7430308;19;20377;-94
2023/09/29 22:19:28;;;;;;;25.73;12.20;;;;;;;14.43;100.00;96532.81;7429437;19;20373;-94
2023/09/29 22:22:08;;;;;;;23.83;12.63;;;;;;;13.90;100.00;96452.56;7429031;19;20423;-94
2023/09/29 22:24:50;;;;;;;20.43;12.13;;;;;;;13.68;100.00;96430.00;7430045;19;20389;-96
2023/09/29 23:35:14;;;;;;;22.13;12.13;;;;;;;13.95;100.00;96608.38;7427544;19;20393;-95
2023/09/29 23:44:48;;;;;;;22.83;13.20;;;;;;;12.49;100.00;96423.81;7427107;19;20432;-95
2023/09/29 23:47:31;;;;;;;25.93;15.47;;;;;;;12.11;100.00;96404.53;7427819;19;20389;-95
2023/09/29 23:50:45;;;;;;;26.43;14.50;;;;;;;13.32;100.00;96600.97;7425909;19;20400;-95
2023/09/29 23:53:46;;;;;;;29.60;13.53;;;;;;;12.06;100.00;96411.97;7427906;19;20389;-94
2023/09/29 23:56:28;;;;;;;26.87;13.60;;;;;;;11.88;100.00;96378.84;7431076;19;20413;-95
2023/09/29 23:59:35;;;;;;;25.63;13.10;;;;;;;12.01;100.00;96385.66;7433092;19;20400;-96
